createdAt,value
2022-08-21T05:53:34.671Z,14.90
2022-08-21T05:56:04.207Z,14.80
2022-08-21T05:58:33.590Z,14.90
2022-08-21T06:01:01.147Z,15.00
2022-08-21T06:03:30.533Z,15.10
2022-08-21T06:05:57.264Z,15.20
2022-08-21T06:08:24.742Z,15.40
2022-08-21T06:10:52.853Z,15.50
2022-08-21T06:13:20.460Z,15.60
2022-08-21T06:15:48.210Z,15.70
2022-08-21T06:18:15.923Z,15.80
2022-08-21T06:20:43.113Z,15.90
2022-08-21T06:23:09.859Z,16.00
2022-08-21T06:25:36.615Z,16.20
2022-08-21T06:28:11.475Z,16.20
2022-08-21T06:30:40.286Z,16.40
2022-08-21T06:33:07.863Z,16.50
2022-08-21T06:35:35.217Z,16.70
2022-08-21T06:38:02.330Z,16.80
2022-08-21T06:40:30.171Z,16.90
2022-08-21T06:42:59.203Z,17.10
2022-08-21T06:45:28.324Z,17.20
2022-08-21T06:47:59.050Z,17.40
2022-08-21T06:50:25.666Z,17.60
2022-08-21T06:53:05.098Z,17.70
2022-08-21T06:55:32.359Z,17.80
2022-08-21T06:57:59.192Z,17.90
2022-08-21T07:00:26.375Z,18.10
2022-08-21T07:02:53.083Z,18.30
2022-08-21T07:05:19.896Z,18.40
2022-08-21T07:07:46.833Z,18.50
2022-08-21T07:10:22.265Z,18.60
2022-08-21T07:12:51.103Z,18.70
2022-08-21T07:15:26.344Z,18.80
2022-08-21T07:17:52.922Z,19.00
2022-08-21T07:20:19.901Z,19.00
2022-08-21T07:22:46.607Z,19.20
2022-08-21T07:27:42.413Z,19.30
2022-08-21T07:30:09.422Z,19.40
2022-08-21T07:32:36.101Z,19.60
2022-08-21T07:35:02.837Z,19.40
2022-08-21T07:37:29.387Z,19.60
2022-08-21T07:39:56.087Z,19.80
2022-08-21T07:42:23.086Z,19.90
2022-08-21T07:44:51.913Z,19.90
2022-08-21T07:47:41.699Z,20.00
2022-08-21T07:50:09.556Z,20.10
2022-08-21T07:52:36.187Z,20.30
2022-08-21T07:55:06.257Z,20.40
2022-08-21T07:57:33.683Z,20.50
2022-08-21T08:00:00.365Z,20.50
2022-08-21T08:02:30.751Z,20.60
2022-08-21T08:05:10.200Z,20.70
2022-08-21T08:07:36.925Z,20.70
2022-08-21T08:10:06.411Z,20.80
2022-08-21T08:12:33.276Z,21.00
2022-08-21T08:15:01.386Z,21.00
2022-08-21T08:17:28.056Z,21.10
2022-08-21T08:19:54.831Z,21.20
2022-08-21T08:22:24.794Z,21.30
2022-08-21T08:24:52.783Z,21.40
2022-08-21T08:27:20.475Z,21.60
2022-08-21T08:29:48.342Z,21.50
2022-08-21T08:32:15.226Z,21.30
2022-08-21T08:34:41.901Z,21.40
2022-08-21T08:37:10.667Z,21.40
2022-08-21T08:39:37.424Z,21.70
2022-08-21T08:42:33.543Z,21.80
2022-08-21T08:45:12.661Z,21.90
2022-08-21T08:47:45.361Z,22.10
2022-08-21T08:50:21.128Z,22.10
2022-08-21T08:52:53.308Z,22.10
2022-08-21T08:55:27.382Z,22.10
2022-08-21T08:57:55.380Z,22.20
2022-08-21T09:00:23.915Z,22.10
2022-08-21T09:02:55.282Z,22.30
2022-08-21T09:05:36.736Z,22.40
2022-08-21T09:08:28.139Z,22.50
2022-08-21T09:11:12.778Z,22.60
2022-08-21T09:14:12.341Z,22.90
2022-08-21T09:17:06.589Z,23.00
2022-08-21T09:19:39.053Z,23.10
2022-08-21T09:22:26.487Z,23.20
2022-08-21T09:25:12.917Z,23.40
2022-08-21T09:27:40.619Z,23.10
2022-08-21T09:30:08.979Z,23.20
2022-08-21T09:32:38.296Z,23.30
2022-08-21T09:35:08.449Z,23.40
2022-08-21T09:37:49.078Z,23.30
2022-08-21T09:40:31.609Z,23.50
2022-08-21T09:43:04.432Z,23.50
2022-08-21T09:45:33.899Z,23.60
2022-08-21T09:48:14.187Z,23.50
2022-08-21T09:50:43.242Z,23.50
2022-08-21T09:53:26.190Z,23.70
2022-08-21T09:56:13.310Z,23.90
2022-08-21T09:58:42.598Z,24.10
2022-08-21T10:01:18.972Z,24.00
2022-08-21T10:03:49.226Z,24.00
2022-08-21T10:06:27.450Z,24.00
2022-08-21T10:09:08.054Z,23.90
2022-08-21T10:11:35.816Z,24.10
2022-08-21T10:14:09.435Z,24.10
2022-08-21T10:17:05.700Z,24.30
2022-08-21T10:20:01.561Z,24.20
2022-08-21T10:22:35.846Z,24.40
2022-08-21T10:25:30.781Z,24.60
2022-08-21T10:28:18.359Z,24.70
2022-08-21T10:31:01.027Z,24.90
2022-08-21T10:33:45.227Z,24.70
2022-08-21T10:36:24.381Z,24.60
2022-08-21T10:39:35.203Z,24.40
2022-08-21T10:42:29.884Z,24.60
2022-08-21T10:45:09.650Z,24.90
2022-08-21T10:47:48.929Z,25.10
2022-08-21T10:50:54.463Z,25.10
2022-08-21T10:53:26.845Z,25.30
2022-08-21T10:56:00.753Z,25.50
2022-08-21T10:58:34.397Z,25.80
2022-08-21T11:01:25.439Z,25.90
2022-08-21T11:04:02.247Z,26.10
2022-08-21T11:06:34.772Z,26.20
2022-08-21T11:09:13.537Z,26.00
2022-08-21T11:11:49.975Z,25.90
2022-08-21T11:14:52.401Z,25.60
2022-08-21T11:17:32.090Z,25.40
2022-08-21T11:20:13.433Z,25.50
2022-08-21T11:23:03.050Z,25.90
2022-08-21T11:25:38.475Z,26.30
2022-08-21T11:28:15.793Z,26.70
2022-08-21T11:31:19.650Z,27.10
2022-08-21T11:34:03.089Z,27.10
2022-08-21T11:36:57.266Z,27.00
2022-08-21T11:50:34.153Z,26.40
2022-08-21T11:53:13.019Z,26.00
2022-08-21T11:55:45.599Z,26.10
2022-08-21T11:58:28.922Z,26.20
2022-08-21T12:01:04.538Z,26.10
2022-08-21T12:03:33.177Z,26.40
2022-08-21T12:06:05.140Z,26.90
2022-08-21T12:08:43.803Z,27.40
2022-08-21T12:11:22.720Z,27.50
2022-08-21T12:14:05.478Z,27.50
2022-08-21T12:16:40.948Z,26.80
2022-08-21T12:19:11.010Z,27.20
2022-08-21T12:22:09.888Z,27.30
2022-08-21T12:24:49.626Z,27.10
2022-08-21T12:27:31.035Z,27.10
2022-08-21T12:30:01.145Z,27.40
2022-08-21T12:32:31.927Z,27.20
2022-08-21T12:35:15.373Z,27.20
2022-08-21T12:38:16.666Z,27.20
2022-08-21T12:40:49.796Z,26.60
2022-08-21T12:43:31.136Z,26.00
2022-08-21T12:45:59.949Z,26.40
2022-08-21T12:48:31.038Z,27.10
2022-08-21T12:51:17.854Z,27.70
2022-08-21T12:53:48.865Z,27.90
2022-08-21T12:56:19.011Z,28.20
2022-08-21T12:58:48.826Z,28.30
2022-08-21T13:01:28.843Z,28.50
2022-08-21T13:04:04.667Z,28.40
2022-08-21T13:06:39.063Z,28.30
2022-08-21T13:09:09.245Z,28.10
2022-08-21T13:11:36.202Z,28.70
2022-08-21T13:14:05.242Z,28.90
2022-08-21T13:16:33.247Z,29.00
2022-08-21T13:19:06.429Z,28.50
2022-08-21T13:21:39.883Z,28.40
2022-08-21T13:27:29.982Z,28.00
2022-08-21T13:30:15.339Z,28.30
2022-08-21T13:32:48.926Z,27.60
2022-08-21T13:35:22.815Z,27.40
2022-08-21T13:37:51.976Z,27.90
2022-08-21T13:40:25.664Z,28.40
2022-08-21T13:42:53.258Z,28.80
2022-08-21T13:45:25.617Z,28.60
2022-08-21T13:47:53.966Z,27.50
2022-08-21T13:50:23.799Z,28.30
2022-08-21T13:52:59.362Z,28.80
2022-08-21T13:55:35.256Z,29.00
2022-08-21T13:58:04.028Z,29.30
2022-08-21T14:00:36.082Z,29.20
2022-08-21T14:03:41.747Z,29.40
2022-08-21T14:06:15.343Z,29.80
2022-08-21T14:08:43.802Z,30.30
2022-08-21T14:11:14.060Z,30.60
2022-08-21T14:13:42.753Z,30.80
2022-08-21T14:16:15.045Z,30.50
2022-08-21T14:19:06.269Z,30.10
2022-08-21T14:21:39.294Z,30.30
2022-08-21T14:24:24.416Z,29.80
2022-08-21T14:26:59.203Z,29.60
2022-08-21T14:29:32.625Z,29.50
2022-08-21T14:32:21.922Z,29.30
2022-08-21T14:34:52.310Z,29.20
2022-08-21T14:37:21.129Z,29.30
2022-08-21T14:39:47.731Z,29.20
2022-08-21T14:42:14.329Z,28.70
2022-08-21T14:44:40.940Z,28.20
2022-08-21T14:47:09.045Z,28.00
2022-08-21T14:49:35.700Z,28.50
2022-08-21T14:52:02.430Z,28.60
2022-08-21T14:54:32.304Z,28.70
2022-08-21T14:57:06.691Z,29.10
2022-08-21T14:59:34.355Z,29.50
2022-08-21T15:02:01.557Z,29.60
2022-08-21T15:04:28.240Z,29.80
2022-08-21T15:06:54.905Z,29.20
2022-08-21T15:09:21.925Z,29.20
2022-08-21T15:11:48.789Z,29.30
2022-08-21T15:14:20.879Z,29.00
2022-08-21T15:16:48.926Z,28.80
2022-08-21T15:19:15.569Z,28.40
2022-08-21T15:21:42.422Z,28.50
2022-08-21T15:24:09.062Z,28.70
2022-08-21T15:26:36.437Z,29.10
2022-08-21T15:29:03.553Z,28.80
2022-08-21T15:31:33.864Z,29.20
2022-08-21T15:34:00.490Z,29.80
2022-08-21T15:36:27.152Z,29.70
2022-08-21T15:38:53.761Z,29.80
2022-08-21T15:41:20.409Z,29.30
2022-08-21T15:43:50.353Z,29.30
2022-08-21T15:46:19.806Z,29.10
2022-08-21T15:48:47.023Z,28.60
2022-08-21T15:51:15.670Z,28.40
2022-08-21T15:53:42.934Z,28.60
2022-08-21T15:56:28.319Z,28.70
2022-08-21T15:59:01.976Z,28.70
2022-08-21T16:01:29.518Z,28.40
2022-08-21T16:04:22.324Z,28.40
2022-08-21T16:06:55.639Z,28.60
2022-08-21T16:09:24.831Z,28.50
2022-08-21T16:11:52.033Z,28.90
2022-08-21T16:14:18.837Z,29.80
2022-08-21T16:16:46.106Z,30.60
2022-08-21T16:19:14.565Z,30.60
2022-08-21T16:21:41.316Z,31.00
2022-08-21T16:24:07.985Z,31.20
2022-08-21T16:26:34.771Z,32.20
2022-08-21T16:29:03.110Z,32.30
2022-08-21T16:31:31.911Z,32.80
2022-08-21T16:33:59.219Z,31.30
2022-08-21T16:36:26.984Z,29.60
2022-08-21T16:38:55.295Z,28.80
2022-08-21T16:41:23.302Z,28.20
2022-08-21T16:43:51.310Z,27.30
2022-08-21T16:46:20.487Z,26.90
2022-08-21T16:48:47.279Z,26.60
2022-08-21T16:51:15.475Z,26.50
2022-08-21T16:53:43.557Z,26.20
2022-08-21T17:01:12.385Z,25.90
2022-08-21T17:03:47.133Z,25.80
2022-08-21T17:06:15.367Z,25.80
2022-08-21T17:08:42.424Z,25.70
2022-08-21T17:11:29.320Z,25.70
2022-08-21T17:14:05.678Z,25.60
2022-08-21T17:16:32.590Z,25.50
2022-08-21T17:18:59.188Z,25.50
2022-08-21T17:21:25.823Z,25.40
2022-08-21T17:23:52.478Z,25.30
2022-08-21T17:26:19.467Z,25.20
2022-08-21T17:28:47.313Z,25.10
2022-08-21T17:31:14.417Z,25.10
2022-08-21T17:33:50.408Z,25.00
2022-08-21T17:36:28.814Z,24.90
2022-08-21T17:38:56.352Z,24.70
2022-08-21T17:41:24.037Z,24.50
2022-08-21T17:46:27.676Z,24.00
2022-08-21T17:48:55.390Z,24.00
2022-08-21T17:51:22.083Z,23.90
2022-08-21T17:53:48.700Z,23.60
2022-08-21T17:56:16.918Z,23.50
2022-08-21T17:58:47.913Z,23.30
2022-08-21T18:01:14.665Z,23.00
2022-08-21T18:03:41.339Z,22.90
2022-08-21T18:06:08.181Z,22.80
2022-08-21T18:08:35.482Z,22.60
2022-08-21T18:11:02.210Z,22.50
2022-08-21T18:13:32.396Z,22.30
2022-08-21T18:16:00.185Z,22.10
2022-08-21T18:18:30.298Z,21.90
2022-08-21T18:20:57.977Z,21.80
2022-08-21T18:23:43.094Z,21.70
2022-08-21T18:26:13.953Z,21.50
2022-08-21T18:28:41.413Z,21.50
2022-08-21T18:31:09.713Z,21.30
2022-08-21T18:33:38.338Z,21.20
2022-08-21T18:36:05.546Z,21.10
2022-08-21T18:38:34.622Z,21.00
2022-08-21T18:41:02.450Z,20.90
2022-08-21T18:43:36.782Z,20.80
2022-08-21T18:46:05.036Z,20.80
2022-08-21T18:48:32.207Z,20.60
2022-08-21T18:50:59.715Z,20.50
2022-08-21T18:53:27.775Z,20.50
2022-08-21T18:55:57.060Z,20.40
2022-08-21T18:58:31.679Z,20.30
2022-08-21T19:00:58.317Z,20.20
2022-08-21T19:03:25.281Z,20.10
2022-08-21T19:05:53.164Z,20.00
2022-08-21T19:08:23.626Z,19.90
2022-08-21T19:10:52.111Z,20.00
2022-08-21T19:13:21.484Z,19.90
2022-08-21T19:15:52.689Z,19.90
2022-08-21T19:18:28.108Z,19.80
2022-08-21T19:20:55.924Z,19.70
2022-08-21T19:23:29.484Z,19.60
2022-08-21T19:26:00.452Z,19.60
2022-08-21T19:28:44.735Z,19.50
2022-08-21T19:31:24.838Z,19.50
2022-08-21T19:33:57.680Z,19.50
2022-08-21T19:36:28.922Z,19.50
2022-08-21T19:38:55.670Z,19.50
2022-08-21T19:41:23.950Z,19.50
2022-08-21T19:43:54.967Z,19.50
2022-08-21T19:46:31.137Z,19.40
2022-08-21T19:48:58.789Z,19.30
2022-08-21T19:51:26.014Z,19.20
2022-08-21T19:53:56.989Z,19.10
2022-08-21T19:56:26.531Z,19.00
2022-08-21T19:58:53.533Z,18.90
2022-08-21T20:01:22.619Z,18.80
2022-08-21T20:03:53.702Z,18.60
2022-08-21T20:06:22.263Z,18.60
2022-08-21T20:08:51.865Z,18.50
2022-08-21T20:11:39.513Z,18.50
2022-08-21T20:14:07.770Z,18.40
2022-08-21T20:16:35.083Z,18.30
2022-08-21T20:19:04.507Z,18.20
2022-08-21T20:21:44.395Z,18.20
2022-08-21T20:24:14.795Z,18.10
2022-08-21T20:26:49.207Z,18.10
2022-08-21T20:29:17.182Z,18.10
2022-08-21T20:31:51.606Z,18.10
2022-08-21T20:34:18.235Z,18.00
2022-08-21T20:36:44.913Z,18.00
2022-08-21T20:39:14.336Z,18.00
2022-08-21T20:41:41.523Z,18.20
2022-08-21T20:44:12.726Z,18.00
2022-08-21T20:46:39.808Z,17.90
2022-08-21T20:49:09.129Z,17.90
2022-08-21T20:51:44.555Z,17.80
2022-08-21T20:54:22.885Z,17.90
2022-08-21T20:57:14.418Z,17.80
2022-08-21T20:59:58.956Z,17.80
2022-08-21T21:02:52.325Z,17.90
2022-08-21T21:05:28.922Z,17.90
2022-08-21T21:08:17.327Z,17.80
2022-08-21T21:10:56.549Z,17.80
2022-08-21T21:13:36.219Z,17.80
2022-08-21T21:16:12.834Z,17.60
2022-08-21T21:18:43.603Z,17.60
2022-08-21T21:21:24.588Z,17.60
2022-08-21T21:24:09.694Z,17.50
2022-08-21T21:26:57.309Z,17.40
2022-08-21T21:29:29.862Z,17.30
2022-08-21T21:31:57.217Z,17.30
2022-08-21T21:34:26.676Z,17.20
2022-08-21T21:37:01.547Z,17.20
2022-08-21T21:40:03.493Z,17.10
2022-08-21T21:43:11.011Z,17.10
2022-08-21T21:45:56.571Z,17.00
2022-08-21T21:48:37.504Z,17.10
2022-08-21T21:51:19.622Z,17.10
2022-08-21T21:53:59.923Z,17.10
2022-08-21T21:57:01.637Z,17.20
2022-08-21T22:00:05.701Z,17.20
2022-08-21T22:02:52.311Z,17.10
2022-08-21T22:05:50.641Z,17.10
2022-08-21T22:08:50.811Z,16.90
2022-08-21T22:11:29.267Z,16.80
2022-08-21T22:14:13.481Z,16.80
2022-08-21T22:16:43.501Z,16.70
2022-08-21T22:19:19.859Z,16.70
2022-08-21T22:21:55.890Z,16.60
2022-08-21T22:24:27.508Z,16.60
2022-08-21T22:26:59.605Z,16.50
2022-08-21T22:29:44.321Z,16.40
2022-08-21T22:32:12.069Z,16.40
2022-08-21T22:34:38.935Z,16.30
2022-08-21T22:37:10.011Z,16.30
2022-08-21T22:39:40.430Z,16.30
2022-08-21T22:42:14.071Z,16.20
2022-08-21T22:44:53.982Z,16.30
2022-08-21T22:47:30.366Z,16.40
2022-08-21T22:50:04.399Z,16.30
2022-08-21T22:52:37.148Z,16.40
2022-08-21T22:55:32.960Z,16.40
2022-08-21T22:58:37.871Z,16.40
2022-08-21T23:01:33.334Z,16.50
2022-08-21T23:04:14.332Z,16.50
2022-08-21T23:06:56.217Z,16.60
2022-08-21T23:09:27.480Z,16.60
2022-08-21T23:11:56.888Z,16.60
2022-08-21T23:14:25.143Z,16.50
2022-08-21T23:17:15.971Z,16.40
2022-08-21T23:20:15.009Z,16.30
2022-08-21T23:22:42.720Z,16.20
2022-08-21T23:25:15.322Z,16.10
2022-08-21T23:28:11.032Z,16.10
2022-08-21T23:30:48.622Z,16.00
2022-08-21T23:33:28.671Z,15.90
2022-08-21T23:36:50.336Z,15.90
2022-08-21T23:39:28.205Z,15.90
2022-08-21T23:42:12.905Z,15.90
2022-08-21T23:45:13.724Z,15.90
2022-08-21T23:47:53.542Z,15.90
2022-08-21T23:50:29.433Z,15.80
2022-08-21T23:53:15.153Z,15.80
2022-08-21T23:56:11.908Z,15.80
2022-08-21T23:59:09.814Z,15.80
